createdAt,value
2018-05-03T03:08:25.899Z,43.47
2018-05-03T03:14:39.384Z,43.61
2018-05-03T03:17:31.303Z,43.85
2018-05-03T03:24:15.774Z,43.65
2018-05-03T03:30:29.975Z,43.60
2018-05-03T03:33:16.696Z,43.89
2018-05-03T03:36:11.958Z,43.96
2018-05-03T03:38:57.973Z,44.49
2018-05-03T03:41:38.019Z,44.64
2018-05-03T03:44:24.265Z,44.68
2018-05-03T03:46:52.663Z,44.71
2018-05-03T03:49:21.040Z,44.83
2018-05-03T03:51:49.458Z,44.90
2018-05-03T03:54:17.920Z,44.88
2018-05-03T03:56:46.288Z,45.03
2018-05-03T03:59:14.675Z,45.09
2018-05-03T04:01:43.055Z,45.50
2018-05-03T04:04:11.428Z,45.87
2018-05-03T04:06:39.829Z,45.61
2018-05-03T04:09:08.296Z,45.81
2018-05-03T04:11:36.679Z,45.57
2018-05-03T04:14:05.048Z,45.49
2018-05-03T04:16:33.427Z,45.15
2018-05-03T04:19:19.731Z,45.11
2018-05-03T04:22:05.941Z,45.82
2018-05-03T04:24:52.229Z,45.52
2018-05-03T04:27:20.621Z,45.46
2018-05-03T04:29:48.979Z,44.90
2018-05-03T04:32:17.358Z,44.40
2018-05-03T04:34:45.773Z,44.58
2018-05-03T04:37:14.634Z,44.26
2018-05-03T04:39:43.026Z,43.96
2018-05-03T04:42:11.423Z,43.55
2018-05-03T04:44:40.851Z,43.39
2018-05-03T04:47:09.199Z,42.66
2018-05-03T04:49:37.585Z,42.44
2018-05-03T04:52:06.103Z,41.81
2018-05-03T04:54:34.513Z,41.59
2018-05-03T04:57:02.907Z,41.26
2018-05-03T04:59:31.271Z,40.86
2018-05-03T05:01:59.625Z,40.72
2018-05-03T05:04:28.427Z,39.94
2018-05-03T05:06:56.786Z,40.65
2018-05-03T05:09:25.165Z,40.12
2018-05-03T05:11:53.577Z,39.49
2018-05-03T05:14:21.968Z,39.13
2018-05-03T05:16:50.467Z,38.65
2018-05-03T05:19:18.847Z,37.88
2018-05-03T05:21:47.231Z,38.11
2018-05-03T05:24:16.043Z,37.20
2018-05-03T05:26:44.376Z,36.42
2018-05-03T05:29:12.919Z,35.60
2018-05-03T05:31:41.288Z,35.34
2018-05-03T05:34:09.678Z,35.77
2018-05-03T05:36:38.070Z,34.88
2018-05-03T05:39:06.436Z,34.62
2018-05-03T05:41:34.922Z,34.23
2018-05-03T05:44:03.285Z,33.89
2018-05-03T05:46:31.658Z,33.32
2018-05-03T05:49:00.043Z,32.55
2018-05-03T05:51:28.407Z,31.40
2018-05-03T05:53:57.159Z,30.52
2018-05-03T05:56:25.546Z,29.21
2018-05-03T05:58:54.017Z,27.90
2018-05-03T06:01:22.399Z,26.10
2018-05-03T06:03:50.776Z,24.73
2018-05-03T06:06:19.157Z,22.33
2018-05-03T06:08:47.615Z,21.77
2018-05-03T06:11:16.110Z,22.69
2018-05-03T06:13:44.598Z,23.41
2018-05-03T06:16:12.966Z,25.14
2018-05-03T06:18:41.502Z,25.71
2018-05-03T06:21:09.851Z,26.83
2018-05-03T06:23:38.217Z,27.12
2018-05-03T06:26:06.642Z,26.29
2018-05-03T06:28:35.004Z,25.46
2018-05-03T06:31:03.848Z,26.18
2018-05-03T06:33:32.271Z,26.53
2018-05-03T06:36:01.316Z,24.51
2018-05-03T06:38:29.676Z,21.66
2018-05-03T06:40:58.085Z,19.73
2018-05-03T06:43:26.464Z,18.10
2018-05-03T06:45:54.856Z,18.28
2018-05-03T06:48:23.270Z,19.16
2018-05-03T06:50:52.032Z,20.43
2018-05-03T06:53:20.395Z,21.89
2018-05-03T06:55:48.774Z,23.75
2018-05-03T06:58:17.161Z,24.16
2018-05-03T07:00:45.522Z,25.84
2018-05-03T07:03:14.010Z,26.58
2018-05-03T07:05:42.458Z,26.84
2018-05-03T07:08:10.807Z,27.30
2018-05-03T07:10:39.595Z,29.02
2018-05-03T07:13:08.448Z,28.42
2018-05-03T07:15:36.808Z,29.58
2018-05-03T07:18:05.190Z,29.95
2018-05-03T07:20:33.574Z,30.10
2018-05-03T07:23:01.937Z,28.99
2018-05-03T07:25:30.344Z,28.04
2018-05-03T07:27:58.733Z,28.25
2018-05-03T07:30:27.081Z,28.24
2018-05-03T07:32:55.452Z,28.43
2018-05-03T07:35:23.834Z,28.20
2018-05-03T07:37:52.240Z,28.86
2018-05-03T07:40:20.622Z,29.07
2018-05-03T07:42:48.980Z,29.54
2018-05-03T07:45:17.340Z,29.46
2018-05-03T07:47:45.846Z,29.26
2018-05-03T07:50:14.262Z,29.59
2018-05-03T07:52:42.606Z,29.59
2018-05-03T07:55:10.986Z,29.39
2018-05-03T07:57:39.578Z,29.41
2018-05-03T08:00:07.943Z,29.11
2018-05-03T08:02:36.438Z,29.06
2018-05-03T08:05:04.808Z,28.77
2018-05-03T08:07:33.161Z,29.05
2018-05-03T08:10:01.560Z,29.25
2018-05-03T08:12:29.939Z,28.62
2018-05-03T08:14:58.286Z,28.00
2018-05-03T08:17:26.707Z,27.67
2018-05-03T08:19:55.063Z,28.00
2018-05-03T08:22:23.483Z,26.42
2018-05-03T08:24:51.896Z,25.25
2018-05-03T08:27:20.266Z,23.43
2018-05-03T08:29:49.012Z,21.01
2018-05-03T08:32:17.393Z,18.64
2018-05-03T08:34:45.768Z,17.93
2018-05-03T08:37:14.648Z,17.10
2018-05-03T08:39:43.075Z,16.61
2018-05-03T08:42:11.834Z,15.83
2018-05-03T08:44:40.198Z,14.19
2018-05-03T08:47:08.571Z,13.44
2018-05-03T08:49:37.904Z,12.48
2018-05-03T08:52:06.264Z,12.38
2018-05-03T08:54:34.747Z,11.87
2018-05-03T08:57:03.101Z,11.44
2018-05-03T08:59:31.471Z,11.60
2018-05-03T09:01:59.887Z,12.61
2018-05-03T09:04:28.271Z,12.34
2018-05-03T09:06:56.625Z,12.11
2018-05-03T09:09:25.008Z,12.04
2018-05-03T09:11:53.385Z,11.72
2018-05-03T09:14:21.780Z,11.72
2018-05-03T09:16:50.263Z,11.99
2018-05-03T09:19:18.607Z,11.51
2018-05-03T09:21:46.969Z,11.28
2018-05-03T09:24:15.342Z,11.62
2018-05-03T09:26:44.179Z,11.74
2018-05-03T09:29:12.579Z,11.49
2018-05-03T09:31:40.950Z,11.77
2018-05-03T09:34:09.323Z,11.98
2018-05-03T09:36:37.694Z,11.75
2018-05-03T09:39:06.233Z,12.18
2018-05-03T09:41:34.541Z,12.29
2018-05-03T09:44:02.942Z,12.39
2018-05-03T09:46:31.355Z,11.60
2018-05-03T09:49:00.203Z,11.19
2018-05-03T09:51:28.580Z,11.63
2018-05-03T09:53:56.966Z,11.74
2018-05-03T09:56:25.362Z,11.71
2018-05-03T09:58:53.835Z,11.83
2018-05-03T10:01:22.216Z,11.94
2018-05-03T10:03:50.584Z,13.02
2018-05-03T10:06:19.049Z,11.87
2018-05-03T10:08:47.413Z,11.98
2018-05-03T10:11:15.778Z,10.76
2018-05-03T10:13:44.154Z,11.03
2018-05-03T10:16:12.548Z,11.63
2018-05-03T10:18:40.967Z,11.86
2018-05-03T10:21:09.434Z,11.66
2018-05-03T10:23:37.922Z,11.29
2018-05-03T10:26:06.311Z,12.52
2018-05-03T10:28:34.675Z,12.39
2018-05-03T10:31:03.067Z,12.85
2018-05-03T10:33:31.433Z,12.95
2018-05-03T10:35:59.895Z,13.04
2018-05-03T10:38:28.187Z,12.50
2018-05-03T10:40:56.596Z,12.30
2018-05-03T10:43:24.941Z,12.09
2018-05-03T10:45:53.343Z,12.94
2018-05-03T10:48:21.711Z,13.26
2018-05-03T10:50:50.086Z,14.22
2018-05-03T10:53:18.465Z,15.04
2018-05-03T10:55:46.838Z,14.68
2018-05-03T10:58:15.206Z,14.75
2018-05-03T11:00:43.591Z,14.62
2018-05-03T11:03:11.954Z,13.84
2018-05-03T11:05:40.315Z,14.95
2018-05-03T11:08:08.695Z,15.03
2018-05-03T11:10:37.058Z,14.56
2018-05-03T11:13:05.817Z,15.72
2018-05-03T11:15:34.206Z,16.56
2018-05-03T11:18:02.650Z,17.60
2018-05-03T11:20:31.075Z,18.29
2018-05-03T11:22:59.860Z,19.62
2018-05-03T11:25:28.221Z,20.50
2018-05-03T11:27:56.575Z,21.46
2018-05-03T11:30:24.949Z,21.33
2018-05-03T11:32:53.358Z,21.26
2018-05-03T11:35:21.724Z,22.56
2018-05-03T11:37:50.246Z,22.70
2018-05-03T11:40:18.993Z,23.36
2018-05-03T11:42:47.435Z,22.96
2018-05-03T11:45:15.741Z,22.81
2018-05-03T11:47:44.115Z,23.30
2018-05-03T11:50:12.511Z,23.47
2018-05-03T11:52:40.997Z,24.20
2018-05-03T11:55:09.370Z,24.28
2018-05-03T11:57:37.727Z,24.25
2018-05-03T12:00:06.119Z,23.63
2018-05-03T12:02:34.486Z,25.03
2018-05-03T12:05:02.852Z,25.39
2018-05-03T12:07:31.242Z,25.66
2018-05-03T12:09:59.641Z,24.86
2018-05-03T12:12:28.018Z,24.00
2018-05-03T12:14:56.512Z,23.44
2018-05-03T12:17:24.899Z,23.40
2018-05-03T12:19:53.381Z,23.44
2018-05-03T12:22:21.772Z,23.14
2018-05-03T12:24:50.120Z,23.02
2018-05-03T12:27:18.504Z,23.04
2018-05-03T12:29:46.889Z,23.06
2018-05-03T12:32:15.275Z,23.56
2018-05-03T12:34:43.751Z,24.19
2018-05-03T12:37:12.226Z,23.79
2018-05-03T12:39:40.598Z,23.31
2018-05-03T12:42:08.955Z,22.82
2018-05-03T12:44:37.348Z,23.51
2018-05-03T12:47:05.715Z,23.14
2018-05-03T12:49:34.098Z,22.88
2018-05-03T12:52:02.470Z,22.42
2018-05-03T12:54:30.990Z,22.37
2018-05-03T12:56:59.358Z,22.68
2018-05-03T12:59:27.740Z,23.35
2018-05-03T13:01:56.104Z,24.02
2018-05-03T13:04:24.462Z,24.28
2018-05-03T13:06:52.857Z,24.22
2018-05-03T13:09:21.247Z,24.86
2018-05-03T13:11:49.595Z,24.89
2018-05-03T13:14:18.001Z,25.56
2018-05-03T13:16:46.370Z,25.52
2018-05-03T13:19:14.760Z,25.73
2018-05-03T13:21:43.142Z,25.33
2018-05-03T13:24:11.494Z,25.32
2018-05-03T13:26:39.876Z,24.97
2018-05-03T13:29:08.597Z,25.42
2018-05-03T13:31:36.999Z,25.72
2018-05-03T13:34:05.759Z,25.97
2018-05-03T13:36:34.126Z,27.23
2018-05-03T13:39:02.506Z,27.39
2018-05-03T13:41:30.882Z,27.34
2018-05-03T13:43:59.378Z,27.60
2018-05-03T13:46:27.728Z,26.78
2018-05-03T13:48:56.083Z,26.71
2018-05-03T13:51:24.462Z,26.98
2018-05-03T13:53:52.838Z,27.51
2018-05-03T13:56:21.218Z,27.36
2018-05-03T13:58:49.592Z,27.89
2018-05-03T14:01:18.160Z,27.85
2018-05-03T14:03:46.918Z,28.47
2018-05-03T14:06:15.473Z,28.53
2018-05-03T14:08:43.845Z,29.07
2018-05-03T14:11:12.507Z,29.02
2018-05-03T14:13:41.286Z,28.87
2018-05-03T14:16:10.051Z,28.77
2018-05-03T14:18:38.542Z,28.81
2018-05-03T14:21:06.917Z,28.68
2018-05-03T14:23:35.270Z,28.44
2018-05-03T14:26:03.659Z,28.15
2018-05-03T14:28:32.041Z,27.61
2018-05-03T14:31:00.421Z,27.51
2018-05-03T14:33:28.846Z,27.00
2018-05-03T14:35:57.269Z,26.81
2018-05-03T14:38:25.630Z,26.48
2018-05-03T14:40:54.000Z,26.41
2018-05-03T14:43:22.365Z,26.86
2018-05-03T14:45:50.759Z,26.97
2018-05-03T14:48:19.162Z,26.91
2018-05-03T14:50:47.687Z,26.87
2018-05-03T14:53:16.034Z,27.60
2018-05-03T14:55:45.344Z,27.76
2018-05-03T14:58:13.762Z,27.86
2018-05-03T15:00:42.203Z,27.84
2018-05-03T15:03:10.583Z,27.67
2018-05-03T15:05:39.080Z,27.71
2018-05-03T15:08:07.831Z,28.42
2018-05-03T15:10:36.267Z,28.21
2018-05-03T15:13:04.636Z,28.45
2018-05-03T15:15:33.408Z,28.09
2018-05-03T15:18:01.788Z,28.08
2018-05-03T15:20:30.166Z,29.02
2018-05-03T15:22:58.529Z,29.90
2018-05-03T15:25:26.882Z,31.07
2018-05-03T15:27:55.283Z,31.39
2018-05-03T15:30:23.641Z,31.99
2018-05-03T15:32:52.072Z,31.70
2018-05-03T15:35:20.851Z,30.85
2018-05-03T15:37:49.228Z,30.85
2018-05-03T15:40:17.863Z,31.01
2018-05-03T15:42:46.276Z,30.85
2018-05-03T15:45:14.751Z,31.05
2018-05-03T15:47:43.177Z,31.43
2018-05-03T15:50:12.011Z,30.95
2018-05-03T15:52:40.358Z,30.56
2018-05-03T15:55:08.739Z,30.67
2018-05-03T15:57:37.129Z,30.03
2018-05-03T16:00:05.500Z,29.96
2018-05-03T16:02:33.947Z,29.50
2018-05-03T16:05:02.737Z,28.47
2018-05-03T16:07:31.522Z,28.99
2018-05-03T16:09:59.878Z,28.80
2018-05-03T16:12:28.260Z,28.47
2018-05-03T16:14:56.618Z,28.47
2018-05-03T16:17:24.999Z,28.83
2018-05-03T16:19:53.378Z,28.44
2018-05-03T16:22:21.742Z,29.13
2018-05-03T16:24:50.109Z,28.60
2018-05-03T16:27:18.515Z,28.47
2018-05-03T16:29:46.886Z,29.72
2018-05-03T16:32:15.271Z,29.35
2018-05-03T16:34:43.654Z,30.03
2018-05-03T16:37:12.032Z,30.76
2018-05-03T16:39:40.414Z,30.88
2018-05-03T16:42:08.795Z,30.78
2018-05-03T16:44:37.174Z,29.87
2018-05-03T16:47:05.533Z,29.85
2018-05-03T16:49:33.932Z,28.56
2018-05-03T16:52:02.298Z,28.18
2018-05-03T16:54:30.690Z,28.07
2018-05-03T16:56:59.081Z,28.59
2018-05-03T16:59:27.571Z,28.22
2018-05-03T17:01:55.865Z,29.04
2018-05-03T17:04:24.700Z,28.83
2018-05-03T17:06:53.295Z,28.39
2018-05-03T17:09:21.657Z,28.12
2018-05-03T17:11:50.142Z,27.75
2018-05-03T17:14:18.574Z,27.78
2018-05-03T17:16:47.367Z,27.99
2018-05-03T17:19:16.168Z,27.27
2018-05-03T17:21:44.549Z,27.74
2018-05-03T17:24:12.926Z,26.71
2018-05-03T17:26:41.758Z,26.64
2018-05-03T17:29:10.207Z,25.41
2018-05-03T17:31:38.576Z,25.83
2018-05-03T17:34:07.399Z,25.81
2018-05-03T17:36:36.242Z,25.00
2018-05-03T17:39:05.054Z,25.52
2018-05-03T17:41:33.505Z,25.48
2018-05-03T17:44:02.354Z,25.00
2018-05-03T17:46:30.737Z,25.94
2018-05-03T17:48:59.150Z,26.07
2018-05-03T17:51:28.012Z,25.67
2018-05-03T17:53:56.382Z,25.87
2018-05-03T17:56:24.981Z,26.66
2018-05-03T17:58:53.346Z,26.99
2018-05-03T18:01:21.763Z,26.29
2018-05-03T18:03:50.220Z,25.53
2018-05-03T18:06:19.080Z,26.08
2018-05-03T18:08:47.562Z,25.96
2018-05-03T18:11:16.000Z,25.65
2018-05-03T18:13:44.756Z,26.30
2018-05-03T18:16:13.190Z,25.91
2018-05-03T18:18:41.591Z,26.00
2018-05-03T18:21:10.074Z,25.99
2018-05-03T18:23:38.489Z,25.69
2018-05-03T18:26:07.034Z,25.72
2018-05-03T18:28:35.550Z,26.37
2018-05-03T18:31:03.919Z,26.79
2018-05-03T18:33:32.533Z,27.36
2018-05-03T18:36:01.427Z,26.79
2018-05-03T18:38:30.369Z,26.15
2018-05-03T18:40:59.342Z,27.37
2018-05-03T18:43:27.744Z,27.53
2018-05-03T18:45:56.252Z,27.48
2018-05-03T18:48:24.699Z,27.54
2018-05-03T18:50:53.810Z,27.56
2018-05-03T18:53:22.207Z,27.60
2018-05-03T18:55:50.605Z,27.10
2018-05-03T18:58:19.542Z,27.52
2018-05-03T19:00:48.282Z,27.73
2018-05-03T19:03:17.071Z,27.51
2018-05-03T19:05:45.842Z,27.43
2018-05-03T19:08:14.222Z,27.58
2018-05-03T19:10:42.735Z,27.67
2018-05-03T19:13:11.642Z,27.79
2018-05-03T19:15:40.383Z,27.52
2018-05-03T19:18:08.771Z,27.49
2018-05-03T19:20:37.232Z,27.78
2018-05-03T19:23:05.942Z,28.01
2018-05-03T19:25:34.332Z,28.19
2018-05-03T19:28:03.336Z,28.53
2018-05-03T19:30:32.642Z,28.92
2018-05-03T19:33:02.534Z,28.74
2018-05-03T19:35:31.994Z,29.48
2018-05-03T19:38:00.872Z,29.39
2018-05-03T19:40:29.656Z,29.45
2018-05-03T19:42:58.120Z,30.10
2018-05-03T19:45:26.549Z,29.90
2018-05-03T19:47:55.030Z,29.90
2018-05-03T19:50:23.448Z,29.26
2018-05-03T19:52:51.848Z,30.22
2018-05-03T19:55:20.356Z,30.45
2018-05-03T19:57:49.191Z,29.83
2018-05-03T20:00:17.789Z,30.32
2018-05-03T20:02:46.324Z,30.55
2018-05-03T20:05:14.686Z,31.10
2018-05-03T20:07:43.078Z,30.33
2018-05-03T20:10:11.488Z,30.54
2018-05-03T20:12:39.946Z,30.28
2018-05-03T20:15:08.388Z,30.58
2018-05-03T20:17:36.807Z,31.06
2018-05-03T20:20:05.311Z,30.81
2018-05-03T20:22:33.774Z,30.85
2018-05-03T20:25:02.165Z,31.33
2018-05-03T20:27:30.557Z,31.08
2018-05-03T20:29:59.322Z,31.97
2018-05-03T20:32:27.702Z,30.86
2018-05-03T20:34:56.079Z,30.46
2018-05-03T20:37:24.454Z,30.84
2018-05-03T20:39:52.829Z,30.00
2018-05-03T20:42:21.201Z,30.37
2018-05-03T20:44:49.559Z,31.40
2018-05-03T20:47:17.957Z,30.72
2018-05-03T20:49:47.304Z,31.12
2018-05-03T20:52:16.061Z,31.88
2018-05-03T20:54:44.435Z,32.08
2018-05-03T20:57:12.804Z,31.02
2018-05-03T20:59:41.183Z,31.35
2018-05-03T21:02:09.595Z,31.89
2018-05-03T21:04:37.967Z,31.94
2018-05-03T21:07:06.358Z,31.53
2018-05-03T21:09:35.159Z,30.92
2018-05-03T21:12:03.938Z,31.63
2018-05-03T21:14:32.739Z,31.89
2018-05-03T21:17:01.555Z,31.63
2018-05-03T21:19:29.922Z,32.33
2018-05-03T21:21:58.299Z,32.36
2018-05-03T21:24:26.699Z,31.96
2018-05-03T21:26:55.100Z,31.92
2018-05-03T21:29:23.470Z,32.19
2018-05-03T21:31:51.878Z,31.81
2018-05-03T21:34:20.254Z,32.00
2018-05-03T21:36:48.612Z,31.62
2018-05-03T21:39:16.989Z,31.42
2018-05-03T21:41:45.367Z,31.27
2018-05-03T21:44:13.733Z,31.04
2018-05-03T21:46:42.138Z,30.47
2018-05-03T21:49:10.524Z,31.93
2018-05-03T21:51:38.881Z,32.03
2018-05-03T21:54:07.257Z,32.00
2018-05-03T21:56:35.628Z,32.48
2018-05-03T21:59:03.986Z,32.61
2018-05-03T22:01:32.397Z,32.45
2018-05-03T22:04:01.034Z,32.58
2018-05-03T22:06:29.322Z,32.99
2018-05-03T22:08:57.745Z,33.35
2018-05-03T22:11:26.102Z,32.31
2018-05-03T22:13:54.555Z,32.39
2018-05-03T22:16:22.882Z,32.88
2018-05-03T22:18:51.258Z,33.13
2018-05-03T22:21:19.652Z,32.86
2018-05-03T22:23:48.036Z,33.54
2018-05-03T22:26:16.390Z,33.28
2018-05-03T22:28:44.785Z,33.05
2018-05-03T22:31:14.178Z,32.96
2018-05-03T22:33:42.554Z,32.93
2018-05-03T22:36:11.126Z,32.90
2018-05-03T22:38:39.511Z,32.59
2018-05-03T22:41:07.875Z,33.01
2018-05-03T22:43:36.271Z,32.93
2018-05-03T22:46:04.646Z,33.27
2018-05-03T22:48:33.003Z,33.52
2018-05-03T22:51:01.373Z,33.59
2018-05-03T22:53:29.796Z,33.86
2018-05-03T22:55:58.153Z,33.78
2018-05-03T22:58:26.608Z,34.21
2018-05-03T23:00:55.096Z,34.02
2018-05-03T23:03:23.472Z,33.89
2018-05-03T23:05:51.880Z,33.69
2018-05-03T23:08:20.258Z,33.73
2018-05-03T23:10:48.630Z,33.62
2018-05-03T23:13:17.002Z,33.84
2018-05-03T23:15:45.387Z,33.92
2018-05-03T23:18:13.750Z,34.03
2018-05-03T23:20:42.167Z,34.06
2018-05-03T23:23:10.738Z,34.15
2018-05-03T23:25:39.088Z,34.34
2018-05-03T23:28:07.457Z,34.93
2018-05-03T23:30:35.882Z,35.18
2018-05-03T23:33:04.238Z,34.91
2018-05-03T23:35:32.585Z,34.76
2018-05-03T23:38:00.981Z,34.83
2018-05-03T23:40:29.584Z,34.83
2018-05-03T23:42:57.946Z,34.91
2018-05-03T23:45:26.316Z,35.46
2018-05-03T23:47:54.709Z,35.06
2018-05-03T23:50:23.076Z,35.15
2018-05-03T23:52:51.510Z,35.46
2018-05-03T23:55:19.931Z,35.46
2018-05-03T23:57:48.376Z,35.35
